sensor_id;sensor_type;location;lat;lon;timestamp;pressure;altitude;pressure_sealevel;temperature;humidity
53758;BME280;39674;59.860;30.672;2023-08-24T00:01:17;101010.44;;;8.16;100.00
53758;BME280;39674;59.860;30.672;2023-08-24T00:03:46;101065.56;;;8.46;100.00
53758;BME280;39674;59.860;30.672;2023-08-24T00:06:16;101104.28;;;8.66;100.00
53758;BME280;39674;59.860;30.672;2023-08-24T00:08:50;101104.34;;;8.65;100.00
53758;BME280;39674;59.860;30.672;2023-08-24T00:11:20;101091.75;;;8.49;100.00
53758;BME280;39674;59.860;30.672;2023-08-24T00:13:50;101019.59;;;8.06;100.00
53758;BME280;39674;59.860;30.672;2023-08-24T00:16:24;101107.22;;;8.59;100.00
53758;BME280;39674;59.860;30.672;2023-08-24T00:18:53;101026.59;;;8.07;100.00
53758;BME280;39674;59.860;30.672;2023-08-24T00:21:22;101038.06;;;8.05;100.00
53758;BME280;39674;59.860;30.672;2023-08-24T00:23:53;101033.78;;;8.02;100.00
53758;BME280;39674;59.860;30.672;2023-08-24T00:26:24;101047.63;;;8.07;100.00
53758;BME280;39674;59.860;30.672;2023-08-24T00:28:55;101052.97;;;8.04;100.00
53758;BME280;39674;59.860;30.672;2023-08-24T00:31:25;101002.50;;;7.69;100.00
53758;BME280;39674;59.860;30.672;2023-08-24T00:33:54;101005.66;;;7.53;100.00
53758;BME280;39674;59.860;30.672;2023-08-24T00:36:26;101044.81;;;7.61;100.00
53758;BME280;39674;59.860;30.672;2023-08-24T00:38:55;100998.28;;;7.38;100.00
53758;BME280;39674;59.860;30.672;2023-08-24T00:41:24;101072.94;;;7.84;100.00
53758;BME280;39674;59.860;30.672;2023-08-24T00:43:55;101012.56;;;7.56;100.00
53758;BME280;39674;59.860;30.672;2023-08-24T00:46:28;101074.16;;;8.01;100.00
53758;BME280;39674;59.860;30.672;2023-08-24T00:48:58;101088.53;;;7.91;100.00
53758;BME280;39674;59.860;30.672;2023-08-24T00:51:27;100991.47;;;7.32;100.00
53758;BME280;39674;59.860;30.672;2023-08-24T00:53:58;101023.03;;;7.58;100.00
53758;BME280;39674;59.860;30.672;2023-08-24T00:56:30;101054.91;;;7.74;100.00
53758;BME280;39674;59.860;30.672;2023-08-24T00:59:01;100999.00;;;7.43;100.00
53758;BME280;39674;59.860;30.672;2023-08-24T01:01:32;101095.97;;;8.03;100.00
53758;BME280;39674;59.860;30.672;2023-08-24T01:04:02;100995.56;;;7.41;100.00
53758;BME280;39674;59.860;30.672;2023-08-24T01:06:38;101000.81;;;7.41;100.00
53758;BME280;39674;59.860;30.672;2023-08-24T01:09:11;101017.88;;;7.54;100.00
53758;BME280;39674;59.860;30.672;2023-08-24T01:11:45;101059.88;;;7.83;100.00
53758;BME280;39674;59.860;30.672;2023-08-24T01:14:34;101075.28;;;7.94;100.00
53758;BME280;39674;59.860;30.672;2023-08-24T01:17:13;101023.19;;;7.53;100.00
53758;BME280;39674;59.860;30.672;2023-08-24T01:19:44;101007.03;;;7.38;100.00
53758;BME280;39674;59.860;30.672;2023-08-24T01:22:23;101028.50;;;7.51;100.00
53758;BME280;39674;59.860;30.672;2023-08-24T01:25:06;101111.06;;;7.98;100.00
53758;BME280;39674;59.860;30.672;2023-08-24T01:27:38;101022.59;;;7.45;100.00
53758;BME280;39674;59.860;30.672;2023-08-24T01:30:10;101066.50;;;7.68;100.00
53758;BME280;39674;59.860;30.672;2023-08-24T01:32:40;101075.09;;;7.73;100.00
53758;BME280;39674;59.860;30.672;2023-08-24T01:35:11;101080.06;;;7.82;100.00
53758;BME280;39674;59.860;30.672;2023-08-24T01:37:41;101006.06;;;7.41;100.00
53758;BME280;39674;59.860;30.672;2023-08-24T01:40:16;101064.38;;;7.79;100.00
53758;BME280;39674;59.860;30.672;2023-08-24T01:42:55;101012.03;;;7.46;100.00
53758;BME280;39674;59.860;30.672;2023-08-24T01:45:29;101056.09;;;7.65;100.00
53758;BME280;39674;59.860;30.672;2023-08-24T01:48:02;101046.03;;;7.51;100.00
53758;BME280;39674;59.860;30.672;2023-08-24T01:50:34;101106.16;;;7.89;100.00
53758;BME280;39674;59.860;30.672;2023-08-24T01:53:04;101031.53;;;7.39;100.00
53758;BME280;39674;59.860;30.672;2023-08-24T01:55:33;101115.63;;;7.93;100.00
53758;BME280;39674;59.860;30.672;2023-08-24T01:58:04;101078.19;;;7.59;100.00
53758;BME280;39674;59.860;30.672;2023-08-24T02:00:35;101101.69;;;7.64;100.00
53758;BME280;39674;59.860;30.672;2023-08-24T02:03:05;101066.91;;;7.29;100.00
53758;BME280;39674;59.860;30.672;2023-08-24T02:05:35;101004.94;;;6.95;100.00
53758;BME280;39674;59.860;30.672;2023-08-24T02:08:05;101010.81;;;7.03;100.00
53758;BME280;39674;59.860;30.672;2023-08-24T02:10:34;101108.66;;;7.65;100.00
53758;BME280;39674;59.860;30.672;2023-08-24T02:13:06;101063.88;;;7.41;100.00
53758;BME280;39674;59.860;30.672;2023-08-24T02:15:37;101043.25;;;7.29;100.00
53758;BME280;39674;59.860;30.672;2023-08-24T02:18:07;101001.91;;;7.07;100.00
53758;BME280;39674;59.860;30.672;2023-08-24T02:20:37;101060.22;;;7.45;100.00
53758;BME280;39674;59.860;30.672;2023-08-24T02:23:06;101117.88;;;7.78;100.00
53758;BME280;39674;59.860;30.672;2023-08-24T02:25:42;101014.56;;;7.22;100.00
53758;BME280;39674;59.860;30.672;2023-08-24T02:28:13;101013.75;;;7.20;100.00
53758;BME280;39674;59.860;30.672;2023-08-24T02:30:42;101079.94;;;7.59;100.00
53758;BME280;39674;59.860;30.672;2023-08-24T02:33:12;101022.31;;;7.27;100.00
53758;BME280;39674;59.860;30.672;2023-08-24T02:35:44;101063.38;;;7.57;100.00
53758;BME280;39674;59.860;30.672;2023-08-24T02:38:22;101059.75;;;7.61;100.00
53758;BME280;39674;59.860;30.672;2023-08-24T02:41:00;101133.69;;;8.03;100.00
53758;BME280;39674;59.860;30.672;2023-08-24T02:43:33;101020.22;;;7.37;100.00
53758;BME280;39674;59.860;30.672;2023-08-24T02:46:07;101086.25;;;7.80;100.00
53758;BME280;39674;59.860;30.672;2023-08-24T02:48:37;101116.94;;;8.06;100.00
53758;BME280;39674;59.860;30.672;2023-08-24T02:51:06;101119.56;;;8.06;100.00
53758;BME280;39674;59.860;30.672;2023-08-24T02:53:36;101016.56;;;7.41;100.00
53758;BME280;39674;59.860;30.672;2023-08-24T02:56:06;101008.78;;;7.38;100.00
53758;BME280;39674;59.860;30.672;2023-08-24T02:58:45;101027.69;;;7.49;100.00
53758;BME280;39674;59.860;30.672;2023-08-24T03:01:14;101075.09;;;7.73;100.00
53758;BME280;39674;59.860;30.672;2023-08-24T03:03:43;101106.72;;;7.97;100.00
53758;BME280;39674;59.860;30.672;2023-08-24T03:06:12;101119.56;;;8.06;100.00
53758;BME280;39674;59.860;30.672;2023-08-24T03:08:42;101121.16;;;8.10;100.00
53758;BME280;39674;59.860;30.672;2023-08-24T03:11:12;101083.16;;;7.94;100.00
53758;BME280;39674;59.860;30.672;2023-08-24T03:13:43;101061.47;;;7.87;100.00
53758;BME280;39674;59.860;30.672;2023-08-24T03:16:13;101083.91;;;7.97;100.00
53758;BME280;39674;59.860;30.672;2023-08-24T03:18:42;101050.41;;;7.77;100.00
53758;BME280;39674;59.860;30.672;2023-08-24T03:21:11;101087.34;;;7.99;100.00
53758;BME280;39674;59.860;30.672;2023-08-24T03:23:42;101015.94;;;7.60;100.00
53758;BME280;39674;59.860;30.672;2023-08-24T03:26:12;101088.00;;;8.06;100.00
53758;BME280;39674;59.860;30.672;2023-08-24T03:28:45;100986.22;;;7.58;100.00
53758;BME280;39674;59.860;30.672;2023-08-24T03:31:15;101033.63;;;7.81;100.00
53758;BME280;39674;59.860;30.672;2023-08-24T03:33:46;101027.56;;;7.79;100.00
53758;BME280;39674;59.860;30.672;2023-08-24T03:36:16;101023.13;;;7.80;100.00
53758;BME280;39674;59.860;30.672;2023-08-24T03:38:46;101083.91;;;8.23;100.00
53758;BME280;39674;59.860;30.672;2023-08-24T03:41:16;101062.09;;;8.19;100.00
53758;BME280;39674;59.860;30.672;2023-08-24T03:43:48;101110.81;;;8.56;100.00
53758;BME280;39674;59.860;30.672;2023-08-24T03:46:18;101125.34;;;8.66;100.00
53758;BME280;39674;59.860;30.672;2023-08-24T03:48:48;101129.66;;;8.69;100.00
53758;BME280;39674;59.860;30.672;2023-08-24T03:51:18;101090.13;;;8.45;100.00
53758;BME280;39674;59.860;30.672;2023-08-24T03:53:51;101103.91;;;8.54;100.00
53758;BME280;39674;59.860;30.672;2023-08-24T03:56:20;101125.88;;;8.76;100.00
53758;BME280;39674;59.860;30.672;2023-08-24T03:58:55;101064.13;;;8.36;100.00
53758;BME280;39674;59.860;30.672;2023-08-24T04:01:24;101028.63;;;8.23;100.00
53758;BME280;39674;59.860;30.672;2023-08-24T04:03:53;101065.31;;;8.53;100.00
53758;BME280;39674;59.860;30.672;2023-08-24T04:06:23;101102.97;;;8.78;100.00
53758;BME280;39674;59.860;30.672;2023-08-24T04:08:52;101088.31;;;8.71;100.00
53758;BME280;39674;59.860;30.672;2023-08-24T04:11:21;101137.78;;;9.10;100.00
53758;BME280;39674;59.860;30.672;2023-08-24T04:13:52;101078.97;;;8.86;100.00
53758;BME280;39674;59.860;30.672;2023-08-24T04:16:21;101104.16;;;8.93;100.00
53758;BME280;39674;59.860;30.672;2023-08-24T04:18:52;101053.34;;;8.67;100.00
53758;BME280;39674;59.860;30.672;2023-08-24T04:21:26;101060.84;;;8.78;100.00
53758;BME280;39674;59.860;30.672;2023-08-24T04:23:55;101060.94;;;8.75;100.00
53758;BME280;39674;59.860;30.672;2023-08-24T04:26:24;101110.50;;;9.11;100.00
53758;BME280;39674;59.860;30.672;2023-08-24T04:28:55;101040.81;;;8.74;100.00
53758;BME280;39674;59.860;30.672;2023-08-24T04:31:25;101046.53;;;8.86;100.00
53758;BME280;39674;59.860;30.672;2023-08-24T04:33:54;101050.06;;;8.85;100.00
53758;BME280;39674;59.860;30.672;2023-08-24T04:36:24;101051.41;;;8.95;100.00
53758;BME280;39674;59.860;30.672;2023-08-24T04:38:53;101145.59;;;9.58;100.00
53758;BME280;39674;59.860;30.672;2023-08-24T04:41:22;101141.78;;;9.65;100.00
53758;BME280;39674;59.860;30.672;2023-08-24T04:43:54;101136.19;;;9.73;100.00
53758;BME280;39674;59.860;30.672;2023-08-24T04:46:23;101134.16;;;9.79;100.00
53758;BME280;39674;59.860;30.672;2023-08-24T04:48:54;101098.78;;;9.63;100.00
53758;BME280;39674;59.860;30.672;2023-08-24T04:51:24;101031.63;;;9.29;100.00
53758;BME280;39674;59.860;30.672;2023-08-24T04:53:55;101081.72;;;9.72;100.00
53758;BME280;39674;59.860;30.672;2023-08-24T04:56:23;101128.78;;;10.24;100.00
53758;BME280;39674;59.860;30.672;2023-08-24T04:58:56;101027.97;;;9.95;100.00
53758;BME280;39674;59.860;30.672;2023-08-24T05:01:25;101077.69;;;10.46;100.00
53758;BME280;39674;59.860;30.672;2023-08-24T05:03:54;101121.91;;;10.99;100.00
53758;BME280;39674;59.860;30.672;2023-08-24T05:06:22;101094.78;;;11.15;100.00
53758;BME280;39674;59.860;30.672;2023-08-24T05:08:52;101099.47;;;11.27;100.00
53758;BME280;39674;59.860;30.672;2023-08-24T05:11:23;101124.84;;;11.49;100.00
53758;BME280;39674;59.860;30.672;2023-08-24T05:13:54;101141.38;;;11.54;100.00
53758;BME280;39674;59.860;30.672;2023-08-24T05:16:24;101138.44;;;11.60;100.00
53758;BME280;39674;59.860;30.672;2023-08-24T05:18:52;101152.28;;;11.65;100.00
53758;BME280;39674;59.860;30.672;2023-08-24T05:21:21;101112.59;;;11.48;100.00
53758;BME280;39674;59.860;30.672;2023-08-24T05:23:51;101151.97;;;11.71;100.00
53758;BME280;39674;59.860;30.672;2023-08-24T05:26:20;101148.31;;;11.74;100.00
53758;BME280;39674;59.860;30.672;2023-08-24T05:28:53;101143.88;;;11.75;100.00
53758;BME280;39674;59.860;30.672;2023-08-24T05:31:26;101148.09;;;11.79;100.00
53758;BME280;39674;59.860;30.672;2023-08-24T05:33:55;101055.75;;;11.20;100.00
53758;BME280;39674;59.860;30.672;2023-08-24T05:36:24;101090.75;;;11.43;100.00
53758;BME280;39674;59.860;30.672;2023-08-24T05:38:52;101137.66;;;11.76;100.00
53758;BME280;39674;59.860;30.672;2023-08-24T05:41:23;101134.78;;;11.80;100.00
53758;BME280;39674;59.860;30.672;2023-08-24T05:43:52;101111.81;;;11.63;100.00
53758;BME280;39674;59.860;30.672;2023-08-24T05:46:23;101130.50;;;11.78;100.00
53758;BME280;39674;59.860;30.672;2023-08-24T05:48:52;101026.16;;;11.12;100.00
53758;BME280;39674;59.860;30.672;2023-08-24T05:51:21;101099.81;;;11.56;100.00
53758;BME280;39674;59.860;30.672;2023-08-24T05:53:49;101139.53;;;11.74;100.00
53758;BME280;39674;59.860;30.672;2023-08-24T05:56:22;101094.69;;;11.53;100.00
53758;BME280;39674;59.860;30.672;2023-08-24T05:58:51;101047.63;;;11.23;100.00
53758;BME280;39674;59.860;30.672;2023-08-24T06:01:20;101049.69;;;11.35;100.00
53758;BME280;39674;59.860;30.672;2023-08-24T06:03:53;101115.72;;;11.74;100.00
53758;BME280;39674;59.860;30.672;2023-08-24T06:06:22;101128.03;;;11.92;100.00
53758;BME280;39674;59.860;30.672;2023-08-24T06:08:51;101132.56;;;12.08;100.00
53758;BME280;39674;59.860;30.672;2023-08-24T06:11:21;101105.47;;;12.02;100.00
53758;BME280;39674;59.860;30.672;2023-08-24T06:13:50;101132.06;;;12.34;100.00
53758;BME280;39674;59.860;30.672;2023-08-24T06:16:21;101117.75;;;12.39;100.00
53758;BME280;39674;59.860;30.672;2023-08-24T06:18:51;101083.63;;;12.32;100.00
53758;BME280;39674;59.860;30.672;2023-08-24T06:21:21;101090.16;;;12.43;100.00
53758;BME280;39674;59.860;30.672;2023-08-24T06:23:50;101090.00;;;12.46;100.00
53758;BME280;39674;59.860;30.672;2023-08-24T06:26:19;101035.59;;;12.23;100.00
53758;BME280;39674;59.860;30.672;2023-08-24T06:28:48;101112.19;;;12.77;100.00
53758;BME280;39674;59.860;30.672;2023-08-24T06:31:16;101042.47;;;12.43;100.00
53758;BME280;39674;59.860;30.672;2023-08-24T06:33:45;101102.88;;;12.86;100.00
53758;BME280;39674;59.860;30.672;2023-08-24T06:36:14;101016.13;;;12.40;100.00
53758;BME280;39674;59.860;30.672;2023-08-24T06:38:45;101074.16;;;12.78;100.00
53758;BME280;39674;59.860;30.672;2023-08-24T06:41:13;101067.47;;;12.71;100.00
53758;BME280;39674;59.860;30.672;2023-08-24T06:43:42;101113.31;;;13.05;100.00
53758;BME280;39674;59.860;30.672;2023-08-24T06:46:11;101099.19;;;12.88;100.00
53758;BME280;39674;59.860;30.672;2023-08-24T06:48:40;101117.41;;;12.94;100.00
53758;BME280;39674;59.860;30.672;2023-08-24T06:51:18;101122.28;;;12.86;100.00
53758;BME280;39674;59.860;30.672;2023-08-24T06:53:49;101123.38;;;12.82;100.00
53758;BME280;39674;59.860;30.672;2023-08-24T06:56:18;101121.66;;;12.81;100.00
53758;BME280;39674;59.860;30.672;2023-08-24T06:58:47;101028.03;;;12.32;100.00
53758;BME280;39674;59.860;30.672;2023-08-24T07:01:17;101121.69;;;12.97;100.00
53758;BME280;39674;59.860;30.672;2023-08-24T07:03:46;101112.97;;;12.95;100.00
53758;BME280;39674;59.860;30.672;2023-08-24T07:06:14;101094.81;;;12.87;100.00
53758;BME280;39674;59.860;30.672;2023-08-24T07:08:43;101140.19;;;13.14;100.00
53758;BME280;39674;59.860;30.672;2023-08-24T07:11:14;101079.25;;;12.81;100.00
53758;BME280;39674;59.860;30.672;2023-08-24T07:13:44;101084.56;;;12.81;100.00
53758;BME280;39674;59.860;30.672;2023-08-24T07:16:13;101109.88;;;12.87;100.00
53758;BME280;39674;59.860;30.672;2023-08-24T07:18:42;101137.78;;;13.10;100.00
53758;BME280;39674;59.860;30.672;2023-08-24T07:21:14;101115.69;;;12.93;100.00
53758;BME280;39674;59.860;30.672;2023-08-24T07:23:45;101113.38;;;12.87;100.00
53758;BME280;39674;59.860;30.672;2023-08-24T07:26:16;101080.78;;;12.69;100.00
53758;BME280;39674;59.860;30.672;2023-08-24T07:28:44;101072.81;;;12.69;100.00
53758;BME280;39674;59.860;30.672;2023-08-24T07:31:13;101116.91;;;13.04;100.00
53758;BME280;39674;59.860;30.672;2023-08-24T07:33:42;101154.63;;;13.25;100.00
53758;BME280;39674;59.860;30.672;2023-08-24T07:36:11;101150.38;;;13.22;100.00
53758;BME280;39674;59.860;30.672;2023-08-24T07:38:40;101096.72;;;12.85;100.00
53758;BME280;39674;59.860;30.672;2023-08-24T07:41:10;101157.78;;;13.15;100.00
53758;BME280;39674;59.860;30.672;2023-08-24T07:43:41;101156.75;;;13.18;100.00
53758;BME280;39674;59.860;30.672;2023-08-24T07:46:09;101153.09;;;13.21;100.00
53758;BME280;39674;59.860;30.672;2023-08-24T07:48:39;101078.81;;;12.73;100.00
53758;BME280;39674;59.860;30.672;2023-08-24T07:51:08;101128.72;;;13.14;100.00
53758;BME280;39674;59.860;30.672;2023-08-24T07:53:37;101085.78;;;12.91;100.00
53758;BME280;39674;59.860;30.672;2023-08-24T07:56:06;101163.91;;;13.50;100.00
53758;BME280;39674;59.860;30.672;2023-08-24T07:58:35;101162.25;;;13.63;100.00
53758;BME280;39674;59.860;30.672;2023-08-24T08:01:05;101158.16;;;13.73;100.00
53758;BME280;39674;59.860;30.672;2023-08-24T08:03:34;101072.75;;;13.35;100.00
53758;BME280;39674;59.860;30.672;2023-08-24T08:06:06;101166.97;;;14.04;100.00
53758;BME280;39674;59.860;30.672;2023-08-24T08:08:34;101170.88;;;14.13;100.00
53758;BME280;39674;59.860;30.672;2023-08-24T08:11:03;101123.31;;;13.94;100.00
53758;BME280;39674;59.860;30.672;2023-08-24T08:13:32;101166.19;;;14.33;100.00
53758;BME280;39674;59.860;30.672;2023-08-24T08:16:02;101162.94;;;14.42;100.00
53758;BME280;39674;59.860;30.672;2023-08-24T08:18:34;101068.81;;;14.03;100.00
53758;BME280;39674;59.860;30.672;2023-08-24T08:21:09;101161.50;;;14.67;100.00
53758;BME280;39674;59.860;30.672;2023-08-24T08:23:38;101160.19;;;14.74;100.00
53758;BME280;39674;59.860;30.672;2023-08-24T08:26:07;101110.56;;;14.44;100.00
53758;BME280;39674;59.860;30.672;2023-08-24T08:28:38;101140.44;;;14.78;100.00
53758;BME280;39674;59.860;30.672;2023-08-24T08:31:07;101153.50;;;14.96;100.00
53758;BME280;39674;59.860;30.672;2023-08-24T08:33:37;101165.47;;;15.03;100.00
53758;BME280;39674;59.860;30.672;2023-08-24T08:36:06;101170.22;;;14.98;100.00
53758;BME280;39674;59.860;30.672;2023-08-24T08:38:35;101157.31;;;14.91;100.00
53758;BME280;39674;59.860;30.672;2023-08-24T08:41:04;101163.19;;;14.97;100.00
53758;BME280;39674;59.860;30.672;2023-08-24T08:43:33;101163.97;;;14.99;100.00
53758;BME280;39674;59.860;30.672;2023-08-24T08:46:02;101159.03;;;14.92;100.00
53758;BME280;39674;59.860;30.672;2023-08-24T08:48:31;101154.56;;;14.93;100.00
53758;BME280;39674;59.860;30.672;2023-08-24T08:51:02;101141.53;;;14.88;100.00
53758;BME280;39674;59.860;30.672;2023-08-24T08:53:32;101139.66;;;14.90;100.00
53758;BME280;39674;59.860;30.672;2023-08-24T08:56:01;101151.63;;;14.98;100.00
53758;BME280;39674;59.860;30.672;2023-08-24T08:58:32;101107.97;;;14.73;100.00
53758;BME280;39674;59.860;30.672;2023-08-24T09:01:03;101148.56;;;15.04;100.00
53758;BME280;39674;59.860;30.672;2023-08-24T09:03:32;101147.00;;;15.14;100.00
53758;BME280;39674;59.860;30.672;2023-08-24T09:06:04;101151.94;;;15.20;100.00
53758;BME280;39674;59.860;30.672;2023-08-24T09:08:33;101149.19;;;15.22;100.00
53758;BME280;39674;59.860;30.672;2023-08-24T09:11:03;101114.81;;;15.04;100.00
53758;BME280;39674;59.860;30.672;2023-08-24T09:13:53;101062.38;;;14.79;96.60
53758;BME280;39674;59.860;30.672;2023-08-24T09:16:22;101140.16;;;15.24;95.91
53758;BME280;39674;59.860;30.672;2023-08-24T09:18:51;101149.47;;;15.32;93.95
53758;BME280;39674;59.860;30.672;2023-08-24T09:21:24;101136.06;;;15.33;91.46
53758;BME280;39674;59.860;30.672;2023-08-24T09:23:54;101142.47;;;15.44;92.59
53758;BME280;39674;59.860;30.672;2023-08-24T09:26:29;101141.94;;;15.66;96.28
53758;BME280;39674;59.860;30.672;2023-08-24T09:28:58;101095.56;;;15.55;88.58
53758;BME280;39674;59.860;30.672;2023-08-24T09:31:35;101106.81;;;15.73;90.18
53758;BME280;39674;59.860;30.672;2023-08-24T09:34:04;101140.88;;;15.96;90.12
53758;BME280;39674;59.860;30.672;2023-08-24T09:36:37;101133.22;;;16.04;90.56
53758;BME280;39674;59.860;30.672;2023-08-24T09:39:06;101133.97;;;16.19;90.56
53758;BME280;39674;59.860;30.672;2023-08-24T09:41:38;101132.81;;;16.62;88.27
53758;BME280;39674;59.860;30.672;2023-08-24T09:44:08;101130.72;;;17.04;86.45
53758;BME280;39674;59.860;30.672;2023-08-24T09:46:38;101131.91;;;17.37;82.85
53758;BME280;39674;59.860;30.672;2023-08-24T09:49:09;101124.63;;;17.63;85.79
53758;BME280;39674;59.860;30.672;2023-08-24T09:51:40;101124.16;;;17.70;80.99
53758;BME280;39674;59.860;30.672;2023-08-24T09:54:12;101111.94;;;17.78;82.29
53758;BME280;39674;59.860;30.672;2023-08-24T09:56:45;101112.53;;;18.06;81.21
53758;BME280;39674;59.860;30.672;2023-08-24T09:59:17;101120.56;;;18.18;79.45
53758;BME280;39674;59.860;30.672;2023-08-24T10:01:49;101120.44;;;18.31;79.47
53758;BME280;39674;59.860;30.672;2023-08-24T10:04:22;101125.34;;;18.48;82.43
53758;BME280;39674;59.860;30.672;2023-08-24T10:06:55;101078.78;;;18.28;81.15
53758;BME280;39674;59.860;30.672;2023-08-24T10:09:37;101111.97;;;18.48;78.67
53758;BME280;39674;59.860;30.672;2023-08-24T10:12:10;101101.38;;;18.35;80.08
53758;BME280;39674;59.860;30.672;2023-08-24T10:14:44;101118.28;;;18.70;79.92
53758;BME280;39674;59.860;30.672;2023-08-24T10:17:15;101120.25;;;19.02;79.14
53758;BME280;39674;59.860;30.672;2023-08-24T10:19:46;101034.19;;;18.40;76.71
53758;BME280;39674;59.860;30.672;2023-08-24T10:22:18;101081.09;;;18.55;75.54
53758;BME280;39674;59.860;30.672;2023-08-24T10:24:48;101120.13;;;18.69;78.97
53758;BME280;39674;59.860;30.672;2023-08-24T10:27:18;101033.69;;;18.12;77.80
53758;BME280;39674;59.860;30.672;2023-08-24T10:29:48;101119.16;;;18.70;79.49
53758;BME280;39674;59.860;30.672;2023-08-24T10:32:20;101108.94;;;18.75;79.81
53758;BME280;39674;59.860;30.672;2023-08-24T10:34:50;101060.31;;;18.36;79.12
53758;BME280;39674;59.860;30.672;2023-08-24T10:37:27;101071.72;;;18.50;79.64
53758;BME280;39674;59.860;30.672;2023-08-24T10:39:56;101102.13;;;18.60;79.61
53758;BME280;39674;59.860;30.672;2023-08-24T10:42:24;101099.22;;;18.63;79.76
53758;BME280;39674;59.860;30.672;2023-08-24T10:44:54;101099.06;;;18.76;81.41
53758;BME280;39674;59.860;30.672;2023-08-24T10:47:23;101014.38;;;18.31;79.61
53758;BME280;39674;59.860;30.672;2023-08-24T10:49:59;101093.13;;;18.95;82.67
53758;BME280;39674;59.860;30.672;2023-08-24T10:52:36;101089.16;;;19.22;83.39
53758;BME280;39674;59.860;30.672;2023-08-24T10:55:21;101091.22;;;19.30;78.22
53758;BME280;39674;59.860;30.672;2023-08-24T10:57:57;101077.72;;;19.20;79.20
53758;BME280;39674;59.860;30.672;2023-08-24T11:00:28;101087.88;;;19.05;77.56
53758;BME280;39674;59.860;30.672;2023-08-24T11:02:57;101063.91;;;18.81;78.40
53758;BME280;39674;59.860;30.672;2023-08-24T11:05:29;101085.06;;;19.06;77.78
53758;BME280;39674;59.860;30.672;2023-08-24T11:08:00;101076.69;;;19.44;77.00
53758;BME280;39674;59.860;30.672;2023-08-24T11:10:33;101062.00;;;19.80;78.36
53758;BME280;39674;59.860;30.672;2023-08-24T11:15:44;101060.66;;;20.38;74.27
53758;BME280;39674;59.860;30.672;2023-08-24T11:18:24;101056.44;;;20.35;72.81
53758;BME280;39674;59.860;30.672;2023-08-24T11:20:54;101045.31;;;20.50;73.70
53758;BME280;39674;59.860;30.672;2023-08-24T11:23:24;101066.50;;;20.84;71.19
53758;BME280;39674;59.860;30.672;2023-08-24T11:25:54;101066.53;;;21.04;71.48
53758;BME280;39674;59.860;30.672;2023-08-24T11:28:24;101084.06;;;21.27;70.18
53758;BME280;39674;59.860;30.672;2023-08-24T11:30:54;101074.06;;;21.49;69.58
53758;BME280;39674;59.860;30.672;2023-08-24T11:33:29;101074.38;;;21.66;68.74
53758;BME280;39674;59.860;30.672;2023-08-24T11:35:59;101064.28;;;21.48;68.91
53758;BME280;39674;59.860;30.672;2023-08-24T11:38:40;101039.44;;;21.36;69.15
53758;BME280;39674;59.860;30.672;2023-08-24T11:41:13;101035.47;;;21.30;67.65
53758;BME280;39674;59.860;30.672;2023-08-24T11:43:42;101046.47;;;21.37;66.39
53758;BME280;39674;59.860;30.672;2023-08-24T11:46:11;101072.50;;;21.27;67.41
53758;BME280;39674;59.860;30.672;2023-08-24T11:48:42;101048.44;;;21.06;66.44
53758;BME280;39674;59.860;30.672;2023-08-24T11:51:13;101047.69;;;20.74;66.31
53758;BME280;39674;59.860;30.672;2023-08-24T11:53:43;101036.50;;;20.28;68.11
53758;BME280;39674;59.860;30.672;2023-08-24T11:56:13;101074.72;;;20.30;68.88
53758;BME280;39674;59.860;30.672;2023-08-24T11:58:48;101067.94;;;20.26;71.04
53758;BME280;39674;59.860;30.672;2023-08-24T12:01:17;101023.19;;;19.96;70.62
53758;BME280;39674;59.860;30.672;2023-08-24T12:03:46;101009.34;;;19.91;71.38
53758;BME280;39674;59.860;30.672;2023-08-24T12:06:16;101017.09;;;19.94;69.94
53758;BME280;39674;59.860;30.672;2023-08-24T12:08:47;101052.81;;;19.94;70.16
53758;BME280;39674;59.860;30.672;2023-08-24T12:11:18;100979.09;;;19.36;71.12
53758;BME280;39674;59.860;30.672;2023-08-24T12:13:49;101057.75;;;19.78;70.43
53758;BME280;39674;59.860;30.672;2023-08-24T12:16:20;101017.84;;;19.53;74.29
53758;BME280;39674;59.860;30.672;2023-08-24T12:18:51;101055.34;;;19.75;71.31
53758;BME280;39674;59.860;30.672;2023-08-24T12:21:21;101020.91;;;19.49;70.13
53758;BME280;39674;59.860;30.672;2023-08-24T12:23:58;101050.97;;;19.73;71.80
53758;BME280;39674;59.860;30.672;2023-08-24T12:26:27;100993.00;;;19.30;73.08
53758;BME280;39674;59.860;30.672;2023-08-24T12:29:00;101037.63;;;19.62;73.46
53758;BME280;39674;59.860;30.672;2023-08-24T12:31:30;101012.88;;;19.49;73.53
53758;BME280;39674;59.860;30.672;2023-08-24T12:34:00;101025.53;;;19.68;74.10
53758;BME280;39674;59.860;30.672;2023-08-24T12:36:31;101044.25;;;19.79;73.80
53758;BME280;39674;59.860;30.672;2023-08-24T12:39:01;100990.97;;;19.44;72.97
53758;BME280;39674;59.860;30.672;2023-08-24T12:41:31;101026.31;;;19.59;73.41
53758;BME280;39674;59.860;30.672;2023-08-24T12:44:03;100982.59;;;19.16;72.77
53758;BME280;39674;59.860;30.672;2023-08-24T12:46:37;101026.78;;;19.43;74.50
53758;BME280;39674;59.860;30.672;2023-08-24T12:49:11;100937.88;;;18.95;72.55
53758;BME280;39674;59.860;30.672;2023-08-24T12:51:40;101033.41;;;19.48;74.56
53758;BME280;39674;59.860;30.672;2023-08-24T12:54:11;100976.72;;;19.22;73.31
53758;BME280;39674;59.860;30.672;2023-08-24T12:56:40;101028.56;;;19.53;74.82